sensor_id;sensor_type;location;lat;lon;timestamp;temperature;humidity
11961;DHT22;6040;49.358;11.140;2023-08-06T00:00:21;15.90;99.90
11961;DHT22;6040;49.358;11.140;2023-08-06T00:02:48;15.00;99.90
11961;DHT22;6040;49.358;11.140;2023-08-06T00:05:15;15.80;99.90
11961;DHT22;6040;49.358;11.140;2023-08-06T00:07:45;15.80;99.90
11961;DHT22;6040;49.358;11.140;2023-08-06T00:10:11;15.90;99.90
11961;DHT22;6040;49.358;11.140;2023-08-06T00:12:38;15.80;99.90
11961;DHT22;6040;49.358;11.140;2023-08-06T00:15:06;15.80;99.90
11961;DHT22;6040;49.358;11.140;2023-08-06T00:17:33;15.80;99.90
11961;DHT22;6040;49.358;11.140;2023-08-06T00:20:01;15.80;99.90
11961;DHT22;6040;49.358;11.140;2023-08-06T00:22:30;15.80;99.90
11961;DHT22;6040;49.358;11.140;2023-08-06T00:24:58;15.70;99.90
11961;DHT22;6040;49.358;11.140;2023-08-06T00:27:25;15.60;99.90
11961;DHT22;6040;49.358;11.140;2023-08-06T00:29:52;15.60;99.90
11961;DHT22;6040;49.358;11.140;2023-08-06T00:32:19;15.50;99.90
11961;DHT22;6040;49.358;11.140;2023-08-06T00:34:46;15.40;99.90
11961;DHT22;6040;49.358;11.140;2023-08-06T00:37:15;15.40;99.90
11961;DHT22;6040;49.358;11.140;2023-08-06T00:39:42;15.40;99.90
11961;DHT22;6040;49.358;11.140;2023-08-06T00:42:10;15.40;99.90
11961;DHT22;6040;49.358;11.140;2023-08-06T00:44:38;15.50;99.90
11961;DHT22;6040;49.358;11.140;2023-08-06T00:47:06;15.30;99.90
11961;DHT22;6040;49.358;11.140;2023-08-06T00:49:34;15.30;99.90
11961;DHT22;6040;49.358;11.140;2023-08-06T00:52:03;15.30;99.90
11961;DHT22;6040;49.358;11.140;2023-08-06T00:54:30;15.40;99.90
11961;DHT22;6040;49.358;11.140;2023-08-06T00:56:59;15.40;99.90
11961;DHT22;6040;49.358;11.140;2023-08-06T00:59:27;15.40;99.90
11961;DHT22;6040;49.358;11.140;2023-08-06T01:01:54;15.50;99.90
11961;DHT22;6040;49.358;11.140;2023-08-06T01:04:22;15.50;99.90
11961;DHT22;6040;49.358;11.140;2023-08-06T01:07:01;16.40;99.90
11961;DHT22;6040;49.358;11.140;2023-08-06T01:09:35;15.30;99.90
11961;DHT22;6040;49.358;11.140;2023-08-06T01:12:09;15.30;99.90
11961;DHT22;6040;49.358;11.140;2023-08-06T01:14:47;15.30;99.90
11961;DHT22;6040;49.358;11.140;2023-08-06T01:17:18;15.50;99.90
11961;DHT22;6040;49.358;11.140;2023-08-06T01:19:45;15.20;99.90
11961;DHT22;6040;49.358;11.140;2023-08-06T01:22:13;15.20;99.90
11961;DHT22;6040;49.358;11.140;2023-08-06T01:24:42;15.20;99.90
11961;DHT22;6040;49.358;11.140;2023-08-06T01:27:17;15.20;99.90
11961;DHT22;6040;49.358;11.140;2023-08-06T01:29:51;15.20;99.90
11961;DHT22;6040;49.358;11.140;2023-08-06T01:32:20;15.40;99.90
11961;DHT22;6040;49.358;11.140;2023-08-06T01:34:48;15.20;99.90
11961;DHT22;6040;49.358;11.140;2023-08-06T01:37:17;15.10;99.90
11961;DHT22;6040;49.358;11.140;2023-08-06T01:39:44;15.20;99.90
11961;DHT22;6040;49.358;11.140;2023-08-06T01:42:11;15.20;99.90
11961;DHT22;6040;49.358;11.140;2023-08-06T01:44:37;15.20;99.90
11961;DHT22;6040;49.358;11.140;2023-08-06T01:47:05;15.10;99.90
11961;DHT22;6040;49.358;11.140;2023-08-06T01:49:32;15.10;99.90
11961;DHT22;6040;49.358;11.140;2023-08-06T01:51:58;15.10;99.90
11961;DHT22;6040;49.358;11.140;2023-08-06T01:54:27;15.10;99.90
11961;DHT22;6040;49.358;11.140;2023-08-06T01:56:54;15.10;99.90
11961;DHT22;6040;49.358;11.140;2023-08-06T01:59:21;15.00;99.90
11961;DHT22;6040;49.358;11.140;2023-08-06T02:01:48;15.00;99.90
11961;DHT22;6040;49.358;11.140;2023-08-06T02:04:14;15.00;99.90
11961;DHT22;6040;49.358;11.140;2023-08-06T02:06:41;14.90;99.90
11961;DHT22;6040;49.358;11.140;2023-08-06T02:09:08;14.90;99.90
11961;DHT22;6040;49.358;11.140;2023-08-06T02:11:36;14.90;99.90
11961;DHT22;6040;49.358;11.140;2023-08-06T02:14:03;14.90;99.90
11961;DHT22;6040;49.358;11.140;2023-08-06T02:16:29;14.90;99.90
11961;DHT22;6040;49.358;11.140;2023-08-06T02:18:56;14.90;99.90
11961;DHT22;6040;49.358;11.140;2023-08-06T02:21:23;14.90;99.90
11961;DHT22;6040;49.358;11.140;2023-08-06T02:23:50;14.90;99.90
11961;DHT22;6040;49.358;11.140;2023-08-06T02:26:16;14.90;99.90
11961;DHT22;6040;49.358;11.140;2023-08-06T02:28:45;15.00;99.90
11961;DHT22;6040;49.358;11.140;2023-08-06T02:31:11;14.80;99.90
11961;DHT22;6040;49.358;11.140;2023-08-06T02:33:38;14.80;99.90
11961;DHT22;6040;49.358;11.140;2023-08-06T02:36:05;14.80;99.90
11961;DHT22;6040;49.358;11.140;2023-08-06T02:38:32;14.70;99.90
11961;DHT22;6040;49.358;11.140;2023-08-06T02:40:59;14.80;99.90
11961;DHT22;6040;49.358;11.140;2023-08-06T02:43:28;14.70;99.90
11961;DHT22;6040;49.358;11.140;2023-08-06T02:45:58;14.80;99.90
11961;DHT22;6040;49.358;11.140;2023-08-06T02:48:25;14.80;99.90
11961;DHT22;6040;49.358;11.140;2023-08-06T02:50:51;14.80;99.90
11961;DHT22;6040;49.358;11.140;2023-08-06T02:53:18;15.00;99.90
11961;DHT22;6040;49.358;11.140;2023-08-06T02:55:46;14.70;99.90
11961;DHT22;6040;49.358;11.140;2023-08-06T02:58:14;14.70;99.90
11961;DHT22;6040;49.358;11.140;2023-08-06T03:00:41;14.70;99.90
11961;DHT22;6040;49.358;11.140;2023-08-06T03:03:10;14.60;99.90
11961;DHT22;6040;49.358;11.140;2023-08-06T03:05:36;14.50;99.90
11961;DHT22;6040;49.358;11.140;2023-08-06T03:08:03;14.60;99.90
11961;DHT22;6040;49.358;11.140;2023-08-06T03:10:30;14.50;99.90
11961;DHT22;6040;49.358;11.140;2023-08-06T03:12:57;14.50;99.90
11961;DHT22;6040;49.358;11.140;2023-08-06T03:15:24;14.50;99.90
11961;DHT22;6040;49.358;11.140;2023-08-06T03:17:51;14.50;99.90
11961;DHT22;6040;49.358;11.140;2023-08-06T03:20:21;14.50;99.90
11961;DHT22;6040;49.358;11.140;2023-08-06T03:22:48;14.50;99.90
11961;DHT22;6040;49.358;11.140;2023-08-06T03:25:14;14.40;99.90
11961;DHT22;6040;49.358;11.140;2023-08-06T03:27:41;14.40;99.90
11961;DHT22;6040;49.358;11.140;2023-08-06T03:30:09;14.50;99.90
11961;DHT22;6040;49.358;11.140;2023-08-06T03:32:35;14.40;99.90
11961;DHT22;6040;49.358;11.140;2023-08-06T03:35:03;14.50;99.90
11961;DHT22;6040;49.358;11.140;2023-08-06T03:37:31;14.50;99.90
11961;DHT22;6040;49.358;11.140;2023-08-06T03:39:58;14.50;99.90
11961;DHT22;6040;49.358;11.140;2023-08-06T03:42:24;14.50;99.90
11961;DHT22;6040;49.358;11.140;2023-08-06T03:44:51;14.40;99.90
11961;DHT22;6040;49.358;11.140;2023-08-06T03:47:18;14.40;99.90
11961;DHT22;6040;49.358;11.140;2023-08-06T03:49:45;14.30;99.90
11961;DHT22;6040;49.358;11.140;2023-08-06T03:52:11;14.30;99.90
11961;DHT22;6040;49.358;11.140;2023-08-06T03:54:40;14.20;99.90
11961;DHT22;6040;49.358;11.140;2023-08-06T03:57:08;14.10;99.90
11961;DHT22;6040;49.358;11.140;2023-08-06T03:59:35;14.10;99.90
11961;DHT22;6040;49.358;11.140;2023-08-06T04:02:03;14.00;99.90
11961;DHT22;6040;49.358;11.140;2023-08-06T04:04:29;14.00;99.90
11961;DHT22;6040;49.358;11.140;2023-08-06T04:06:56;13.90;99.90
11961;DHT22;6040;49.358;11.140;2023-08-06T04:09:23;13.90;99.90
11961;DHT22;6040;49.358;11.140;2023-08-06T04:11:51;13.80;99.90
11961;DHT22;6040;49.358;11.140;2023-08-06T04:14:18;13.90;99.90
11961;DHT22;6040;49.358;11.140;2023-08-06T04:16:45;13.80;99.90
11961;DHT22;6040;49.358;11.140;2023-08-06T04:19:12;13.80;99.90
11961;DHT22;6040;49.358;11.140;2023-08-06T04:21:39;13.70;99.90
11961;DHT22;6040;49.358;11.140;2023-08-06T04:24:05;13.70;99.90
11961;DHT22;6040;49.358;11.140;2023-08-06T04:26:32;13.70;99.90
11961;DHT22;6040;49.358;11.140;2023-08-06T04:29:00;13.70;99.90
11961;DHT22;6040;49.358;11.140;2023-08-06T04:31:29;13.70;99.90
11961;DHT22;6040;49.358;11.140;2023-08-06T04:33:55;13.70;99.90
11961;DHT22;6040;49.358;11.140;2023-08-06T04:36:22;13.60;99.90
11961;DHT22;6040;49.358;11.140;2023-08-06T04:38:49;13.60;99.90
11961;DHT22;6040;49.358;11.140;2023-08-06T04:41:16;13.60;99.90
11961;DHT22;6040;49.358;11.140;2023-08-06T04:43:43;13.60;99.90
11961;DHT22;6040;49.358;11.140;2023-08-06T04:46:11;13.60;99.90
11961;DHT22;6040;49.358;11.140;2023-08-06T04:48:38;13.60;99.90
11961;DHT22;6040;49.358;11.140;2023-08-06T04:51:05;13.50;99.90
11961;DHT22;6040;49.358;11.140;2023-08-06T04:53:31;13.50;99.90
11961;DHT22;6040;49.358;11.140;2023-08-06T04:55:58;13.50;99.90
11961;DHT22;6040;49.358;11.140;2023-08-06T04:58:25;14.10;99.90
11961;DHT22;6040;49.358;11.140;2023-08-06T05:00:53;13.50;99.90
11961;DHT22;6040;49.358;11.140;2023-08-06T05:03:22;13.50;99.90
11961;DHT22;6040;49.358;11.140;2023-08-06T05:05:49;13.60;99.90
11961;DHT22;6040;49.358;11.140;2023-08-06T05:08:16;13.70;99.90
11961;DHT22;6040;49.358;11.140;2023-08-06T05:10:44;15.20;99.90
11961;DHT22;6040;49.358;11.140;2023-08-06T05:13:11;13.90;99.90
11961;DHT22;6040;49.358;11.140;2023-08-06T05:15:37;14.00;99.90
11961;DHT22;6040;49.358;11.140;2023-08-06T05:18:05;14.00;99.90
11961;DHT22;6040;49.358;11.140;2023-08-06T05:20:36;14.10;99.90
11961;DHT22;6040;49.358;11.140;2023-08-06T05:23:02;14.10;99.90
11961;DHT22;6040;49.358;11.140;2023-08-06T05:25:29;14.10;99.90
11961;DHT22;6040;49.358;11.140;2023-08-06T05:27:57;14.20;99.90
11961;DHT22;6040;49.358;11.140;2023-08-06T05:30:23;14.30;99.90
11961;DHT22;6040;49.358;11.140;2023-08-06T05:32:50;14.30;99.90
11961;DHT22;6040;49.358;11.140;2023-08-06T05:35:17;14.40;99.90
11961;DHT22;6040;49.358;11.140;2023-08-06T05:37:45;14.40;99.90
11961;DHT22;6040;49.358;11.140;2023-08-06T05:40:12;14.40;99.90
11961;DHT22;6040;49.358;11.140;2023-08-06T05:42:39;14.40;99.90
11961;DHT22;6040;49.358;11.140;2023-08-06T05:45:07;14.40;99.90
11961;DHT22;6040;49.358;11.140;2023-08-06T05:47:34;14.50;99.90
11961;DHT22;6040;49.358;11.140;2023-08-06T05:50:01;14.60;99.90
11961;DHT22;6040;49.358;11.140;2023-08-06T05:52:28;14.60;99.90
11961;DHT22;6040;49.358;11.140;2023-08-06T05:54:56;14.80;99.90
11961;DHT22;6040;49.358;11.140;2023-08-06T05:57:22;14.80;99.90
11961;DHT22;6040;49.358;11.140;2023-08-06T05:59:49;14.80;99.90
11961;DHT22;6040;49.358;11.140;2023-08-06T06:02:16;15.10;99.90
11961;DHT22;6040;49.358;11.140;2023-08-06T06:04:44;15.90;99.90
11961;DHT22;6040;49.358;11.140;2023-08-06T06:07:11;16.40;99.90
11961;DHT22;6040;49.358;11.140;2023-08-06T06:09:37;16.90;99.90
11961;DHT22;6040;49.358;11.140;2023-08-06T06:12:06;17.50;99.90
11961;DHT22;6040;49.358;11.140;2023-08-06T06:14:33;18.90;99.90
11961;DHT22;6040;49.358;11.140;2023-08-06T06:17:00;19.90;99.90
11961;DHT22;6040;49.358;11.140;2023-08-06T06:19:27;20.50;99.90
11961;DHT22;6040;49.358;11.140;2023-08-06T06:21:54;20.60;99.90
11961;DHT22;6040;49.358;11.140;2023-08-06T06:24:23;20.00;99.90
11961;DHT22;6040;49.358;11.140;2023-08-06T06:26:49;20.20;99.90
11961;DHT22;6040;49.358;11.140;2023-08-06T06:29:18;19.50;99.90
11961;DHT22;6040;49.358;11.140;2023-08-06T06:31:44;18.80;99.90
11961;DHT22;6040;49.358;11.140;2023-08-06T06:34:11;18.10;99.90
11961;DHT22;6040;49.358;11.140;2023-08-06T06:36:38;17.60;99.90
11961;DHT22;6040;49.358;11.140;2023-08-06T06:39:05;17.40;99.90
11961;DHT22;6040;49.358;11.140;2023-08-06T06:41:32;17.90;99.90
11961;DHT22;6040;49.358;11.140;2023-08-06T06:43:58;16.80;99.90
11961;DHT22;6040;49.358;11.140;2023-08-06T06:46:26;16.50;99.90
11961;DHT22;6040;49.358;11.140;2023-08-06T06:48:53;16.40;99.90
11961;DHT22;6040;49.358;11.140;2023-08-06T06:51:20;16.40;99.90
11961;DHT22;6040;49.358;11.140;2023-08-06T06:53:47;16.30;99.90
11961;DHT22;6040;49.358;11.140;2023-08-06T06:56:14;16.40;99.90
11961;DHT22;6040;49.358;11.140;2023-08-06T06:58:40;16.40;99.90
11961;DHT22;6040;49.358;11.140;2023-08-06T07:01:08;16.40;99.90
11961;DHT22;6040;49.358;11.140;2023-08-06T07:03:38;16.30;99.90
11961;DHT22;6040;49.358;11.140;2023-08-06T07:06:05;16.20;99.90
11961;DHT22;6040;49.358;11.140;2023-08-06T07:08:32;16.20;99.90
11961;DHT22;6040;49.358;11.140;2023-08-06T07:11:02;16.30;99.90
11961;DHT22;6040;49.358;11.140;2023-08-06T07:13:29;16.40;99.90
11961;DHT22;6040;49.358;11.140;2023-08-06T07:15:56;16.40;99.90
11961;DHT22;6040;49.358;11.140;2023-08-06T07:18:23;16.60;99.90
11961;DHT22;6040;49.358;11.140;2023-08-06T07:20:52;16.70;99.90
11961;DHT22;6040;49.358;11.140;2023-08-06T07:23:20;16.90;99.90
11961;DHT22;6040;49.358;11.140;2023-08-06T07:25:47;17.00;99.90
11961;DHT22;6040;49.358;11.140;2023-08-06T07:28:15;17.20;99.90
11961;DHT22;6040;49.358;11.140;2023-08-06T07:30:44;17.40;99.90
11961;DHT22;6040;49.358;11.140;2023-08-06T07:33:11;17.50;99.90
11961;DHT22;6040;49.358;11.140;2023-08-06T07:35:38;17.60;99.90
11961;DHT22;6040;49.358;11.140;2023-08-06T07:38:06;17.60;99.90
11961;DHT22;6040;49.358;11.140;2023-08-06T07:40:35;17.50;99.90
11961;DHT22;6040;49.358;11.140;2023-08-06T07:43:02;17.50;99.90
11961;DHT22;6040;49.358;11.140;2023-08-06T07:45:33;17.50;99.90
11961;DHT22;6040;49.358;11.140;2023-08-06T07:48:00;17.50;99.90
11961;DHT22;6040;49.358;11.140;2023-08-06T07:50:27;17.50;99.90
11961;DHT22;6040;49.358;11.140;2023-08-06T07:52:53;17.70;99.90
11961;DHT22;6040;49.358;11.140;2023-08-06T07:55:22;17.60;99.90
11961;DHT22;6040;49.358;11.140;2023-08-06T07:57:48;17.50;99.90
11961;DHT22;6040;49.358;11.140;2023-08-06T08:00:15;17.50;99.90
11961;DHT22;6040;49.358;11.140;2023-08-06T08:02:42;17.40;99.90
11961;DHT22;6040;49.358;11.140;2023-08-06T08:05:09;17.30;99.90
11961;DHT22;6040;49.358;11.140;2023-08-06T08:07:36;17.30;99.90
11961;DHT22;6040;49.358;11.140;2023-08-06T08:10:03;17.20;99.90
11961;DHT22;6040;49.358;11.140;2023-08-06T08:12:32;17.10;99.90
11961;DHT22;6040;49.358;11.140;2023-08-06T08:14:58;17.00;99.90
11961;DHT22;6040;49.358;11.140;2023-08-06T08:17:25;17.00;99.90
11961;DHT22;6040;49.358;11.140;2023-08-06T08:19:52;16.90;99.90
11961;DHT22;6040;49.358;11.140;2023-08-06T08:22:19;15.60;99.90
11961;DHT22;6040;49.358;11.140;2023-08-06T08:24:46;17.70;99.90
11961;DHT22;6040;49.358;11.140;2023-08-06T08:27:12;18.20;99.90
11961;DHT22;6040;49.358;11.140;2023-08-06T08:29:41;17.20;99.90
11961;DHT22;6040;49.358;11.140;2023-08-06T08:32:07;18.50;99.90
11961;DHT22;6040;49.358;11.140;2023-08-06T08:34:34;18.30;99.90
11961;DHT22;6040;49.358;11.140;2023-08-06T08:37:01;17.90;99.90
11961;DHT22;6040;49.358;11.140;2023-08-06T08:39:28;17.50;99.90
11961;DHT22;6040;49.358;11.140;2023-08-06T08:41:54;17.30;99.90
11961;DHT22;6040;49.358;11.140;2023-08-06T08:44:21;17.30;99.90
11961;DHT22;6040;49.358;11.140;2023-08-06T08:46:50;17.40;99.90
11961;DHT22;6040;49.358;11.140;2023-08-06T08:49:18;17.60;99.90
11961;DHT22;6040;49.358;11.140;2023-08-06T08:51:46;17.70;99.90
11961;DHT22;6040;49.358;11.140;2023-08-06T08:54:15;17.80;99.90
11961;DHT22;6040;49.358;11.140;2023-08-06T08:56:43;17.80;99.90
11961;DHT22;6040;49.358;11.140;2023-08-06T08:59:10;17.70;99.90
11961;DHT22;6040;49.358;11.140;2023-08-06T09:01:39;17.70;99.90
11961;DHT22;6040;49.358;11.140;2023-08-06T09:04:08;18.00;99.90
11961;DHT22;6040;49.358;11.140;2023-08-06T09:06:37;18.80;99.90
11961;DHT22;6040;49.358;11.140;2023-08-06T09:09:07;19.40;99.90
11961;DHT22;6040;49.358;11.140;2023-08-06T09:11:39;19.70;99.90
11961;DHT22;6040;49.358;11.140;2023-08-06T09:14:09;20.10;99.90
11961;DHT22;6040;49.358;11.140;2023-08-06T09:16:36;19.90;99.90
11961;DHT22;6040;49.358;11.140;2023-08-06T09:19:08;19.60;99.90
11961;DHT22;6040;49.358;11.140;2023-08-06T09:21:37;19.50;99.90
11961;DHT22;6040;49.358;11.140;2023-08-06T09:24:08;20.00;99.90
11961;DHT22;6040;49.358;11.140;2023-08-06T09:26:36;20.40;99.90
11961;DHT22;6040;49.358;11.140;2023-08-06T09:29:05;20.70;99.90
11961;DHT22;6040;49.358;11.140;2023-08-06T09:31:33;21.10;99.90
11961;DHT22;6040;49.358;11.140;2023-08-06T09:34:00;21.50;99.90
11961;DHT22;6040;49.358;11.140;2023-08-06T09:36:28;21.90;99.90
11961;DHT22;6040;49.358;11.140;2023-08-06T09:38:55;21.70;99.90
11961;DHT22;6040;49.358;11.140;2023-08-06T09:41:26;21.10;99.90
11961;DHT22;6040;49.358;11.140;2023-08-06T09:43:54;20.30;99.90
11961;DHT22;6040;49.358;11.140;2023-08-06T09:46:21;19.90;99.90
11961;DHT22;6040;49.358;11.140;2023-08-06T09:48:48;19.70;99.90
11961;DHT22;6040;49.358;11.140;2023-08-06T09:51:15;19.60;99.90
11961;DHT22;6040;49.358;11.140;2023-08-06T09:53:46;19.40;99.90
11961;DHT22;6040;49.358;11.140;2023-08-06T09:56:15;19.60;99.90
11961;DHT22;6040;49.358;11.140;2023-08-06T09:58:42;20.10;99.90
11961;DHT22;6040;49.358;11.140;2023-08-06T10:01:10;20.10;99.90
11961;DHT22;6040;49.358;11.140;2023-08-06T10:03:38;20.40;99.90
11961;DHT22;6040;49.358;11.140;2023-08-06T10:06:06;20.40;99.90
11961;DHT22;6040;49.358;11.140;2023-08-06T10:08:34;20.60;99.90
11961;DHT22;6040;49.358;11.140;2023-08-06T10:11:03;20.40;99.90
11961;DHT22;6040;49.358;11.140;2023-08-06T10:13:31;20.30;99.90
11961;DHT22;6040;49.358;11.140;2023-08-06T10:15:59;20.10;99.90
11961;DHT22;6040;49.358;11.140;2023-08-06T10:18:26;20.20;99.90
11961;DHT22;6040;49.358;11.140;2023-08-06T10:20:53;20.20;99.90
11961;DHT22;6040;49.358;11.140;2023-08-06T10:23:33;20.50;99.90
11961;DHT22;6040;49.358;11.140;2023-08-06T10:26:00;20.50;99.90
11961;DHT22;6040;49.358;11.140;2023-08-06T10:28:36;20.20;99.90
11961;DHT22;6040;49.358;11.140;2023-08-06T10:31:04;20.00;99.90
11961;DHT22;6040;49.358;11.140;2023-08-06T10:33:41;19.70;99.90
11961;DHT22;6040;49.358;11.140;2023-08-06T10:36:09;19.50;99.90
11961;DHT22;6040;49.358;11.140;2023-08-06T10:38:44;19.20;99.90
11961;DHT22;6040;49.358;11.140;2023-08-06T10:41:16;19.10;99.90
11961;DHT22;6040;49.358;11.140;2023-08-06T10:43:47;18.90;99.90
11961;DHT22;6040;49.358;11.140;2023-08-06T10:46:22;19.00;99.90
11961;DHT22;6040;49.358;11.140;2023-08-06T10:48:49;18.90;99.90
11961;DHT22;6040;49.358;11.140;2023-08-06T10:51:17;19.10;99.90
11961;DHT22;6040;49.358;11.140;2023-08-06T10:53:46;19.30;99.90
11961;DHT22;6040;49.358;11.140;2023-08-06T10:56:14;19.40;99.90
11961;DHT22;6040;49.358;11.140;2023-08-06T10:58:41;19.40;99.90
11961;DHT22;6040;49.358;11.140;2023-08-06T11:01:10;19.50;99.90
11961;DHT22;6040;49.358;11.140;2023-08-06T11:03:38;19.50;99.90
11961;DHT22;6040;49.358;11.140;2023-08-06T11:06:07;19.50;99.90
11961;DHT22;6040;49.358;11.140;2023-08-06T11:08:35;19.50;99.90
11961;DHT22;6040;49.358;11.140;2023-08-06T11:11:09;19.50;99.90
11961;DHT22;6040;49.358;11.140;2023-08-06T11:13:36;19.40;99.90
11961;DHT22;6040;49.358;11.140;2023-08-06T11:16:04;19.30;99.90
11961;DHT22;6040;49.358;11.140;2023-08-06T11:18:33;19.00;99.90
11961;DHT22;6040;49.358;11.140;2023-08-06T11:21:00;18.70;99.90
11961;DHT22;6040;49.358;11.140;2023-08-06T11:23:28;18.60;99.90
11961;DHT22;6040;49.358;11.140;2023-08-06T11:25:55;18.60;99.90
11961;DHT22;6040;49.358;11.140;2023-08-06T11:28:22;18.60;99.90
11961;DHT22;6040;49.358;11.140;2023-08-06T11:30:50;18.80;99.90
11961;DHT22;6040;49.358;11.140;2023-08-06T11:33:20;19.10;99.90
11961;DHT22;6040;49.358;11.140;2023-08-06T11:35:49;19.30;99.90
11961;DHT22;6040;49.358;11.140;2023-08-06T11:38:16;19.40;99.90
11961;DHT22;6040;49.358;11.140;2023-08-06T11:40:44;19.70;99.90
11961;DHT22;6040;49.358;11.140;2023-08-06T11:43:11;20.10;99.90
11961;DHT22;6040;49.358;11.140;2023-08-06T11:45:38;20.50;99.90
11961;DHT22;6040;49.358;11.140;2023-08-06T11:48:05;20.40;99.90
11961;DHT22;6040;49.358;11.140;2023-08-06T11:50:36;20.30;99.90
11961;DHT22;6040;49.358;11.140;2023-08-06T11:53:04;20.30;99.90
11961;DHT22;6040;49.358;11.140;2023-08-06T11:55:31;20.20;99.90
11961;DHT22;6040;49.358;11.140;2023-08-06T11:57:59;20.20;99.90
11961;DHT22;6040;49.358;11.140;2023-08-06T12:00:29;20.20;99.90
11961;DHT22;6040;49.358;11.140;2023-08-06T12:02:56;20.50;99.90
11961;DHT22;6040;49.358;11.140;2023-08-06T12:05:28;20.90;99.90
11961;DHT22;6040;49.358;11.140;2023-08-06T12:07:57;20.90;99.90
11961;DHT22;6040;49.358;11.140;2023-08-06T12:10:26;20.50;99.90
11961;DHT22;6040;49.358;11.140;2023-08-06T12:12:53;20.30;99.90
11961;DHT22;6040;49.358;11.140;2023-08-06T12:15:21;19.90;99.90
11961;DHT22;6040;49.358;11.140;2023-08-06T12:17:48;19.60;99.90
11961;DHT22;6040;49.358;11.140;2023-08-06T12:20:15;19.60;99.90
11961;DHT22;6040;49.358;11.140;2023-08-06T12:22:42;19.40;99.90
11961;DHT22;6040;49.358;11.140;2023-08-06T12:25:10;19.60;99.90
11961;DHT22;6040;49.358;11.140;2023-08-06T12:27:40;19.90;99.90
11961;DHT22;6040;49.358;11.140;2023-08-06T12:30:08;20.00;99.90
11961;DHT22;6040;49.358;11.140;2023-08-06T12:32:35;19.80;99.90
11961;DHT22;6040;49.358;11.140;2023-08-06T12:35:02;19.60;99.90
11961;DHT22;6040;49.358;11.140;2023-08-06T12:37:30;19.60;99.90
11961;DHT22;6040;49.358;11.140;2023-08-06T12:39:57;19.70;99.90
11961;DHT22;6040;49.358;11.140;2023-08-06T12:42:23;19.70;99.90
11961;DHT22;6040;49.358;11.140;2023-08-06T12:44:52;19.70;99.90
11961;DHT22;6040;49.358;11.140;2023-08-06T12:47:19;19.70;99.90
11961;DHT22;6040;49.358;11.140;2023-08-06T12:49:46;19.40;99.90
11961;DHT22;6040;49.358;11.140;2023-08-06T12:52:13;19.20;99.90
11961;DHT22;6040;49.358;11.140;2023-08-06T12:54:40;19.20;99.90
11961;DHT22;6040;49.358;11.140;2023-08-06T12:57:07;19.40;99.90
11961;DHT22;6040;49.358;11.140;2023-08-06T12:59:34;19.50;99.90
11961;DHT22;6040;49.358;11.140;2023-08-06T13:02:04;19.50;99.90
11961;DHT22;6040;49.358;11.140;2023-08-06T13:04:30;19.40;99.90
11961;DHT22;6040;49.358;11.140;2023-08-06T13:06:59;19.20;99.90
11961;DHT22;6040;49.358;11.140;2023-08-06T13:09:26;19.20;99.90
11961;DHT22;6040;49.358;11.140;2023-08-06T13:11:53;20.00;99.90
11961;DHT22;6040;49.358;11.140;2023-08-06T13:14:20;19.00;99.90
11961;DHT22;6040;49.358;11.140;2023-08-06T13:16:47;18.90;99.90
11961;DHT22;6040;49.358;11.140;2023-08-06T13:19:15;19.00;99.90
11961;DHT22;6040;49.358;11.140;2023-08-06T13:22:02;19.00;99.90
11961;DHT22;6040;49.358;11.140;2023-08-06T13:24:30;18.90;99.90
11961;DHT22;6040;49.358;11.140;2023-08-06T13:26:57;18.90;99.90
11961;DHT22;6040;49.358;11.140;2023-08-06T13:29:25;18.90;99.90
11961;DHT22;6040;49.358;11.140;2023-08-06T13:31:53;18.60;99.90
11961;DHT22;6040;49.358;11.140;2023-08-06T13:34:21;18.50;99.90
11961;DHT22;6040;49.358;11.140;2023-08-06T13:36:48;18.40;99.90
11961;DHT22;6040;49.358;11.140;2023-08-06T13:39:15;18.20;99.90
11961;DHT22;6040;49.358;11.140;2023-08-06T13:41:42;18.10;99.90
11961;DHT22;6040;49.358;11.140;2023-08-06T13:44:09;18.10;99.90
11961;DHT22;6040;49.358;11.140;2023-08-06T13:46:39;18.10;99.90
11961;DHT22;6040;49.358;11.140;2023-08-06T13:49:06;18.10;99.90
11961;DHT22;6040;49.358;11.140;2023-08-06T13:51:34;18.10;99.90
11961;DHT22;6040;49.358;11.140;2023-08-06T13:54:01;18.10;99.90
11961;DHT22;6040;49.358;11.140;2023-08-06T13:56:28;18.10;99.90
11961;DHT22;6040;49.358;11.140;2023-08-06T13:58:55;18.00;99.90
11961;DHT22;6040;49.358;11.140;2023-08-06T14:01:22;17.90;99.90
11961;DHT22;6040;49.358;11.140;2023-08-06T14:03:48;17.70;99.90
11961;DHT22;6040;49.358;11.140;2023-08-06T14:06:15;17.80;99.90
11961;DHT22;6040;49.358;11.140;2023-08-06T14:08:43;17.60;99.90
11961;DHT22;6040;49.358;11.140;2023-08-06T14:11:10;17.40;99.90
11961;DHT22;6040;49.358;11.140;2023-08-06T14:13:37;17.20;99.90
11961;DHT22;6040;49.358;11.140;2023-08-06T14:16:04;17.20;99.90
11961;DHT22;6040;49.358;11.140;2023-08-06T14:18:30;17.20;99.90
11961;DHT22;6040;49.358;11.140;2023-08-06T14:20:57;17.20;99.90
11961;DHT22;6040;49.358;11.140;2023-08-06T14:23:24;17.20;99.90
11961;DHT22;6040;49.358;11.140;2023-08-06T14:25:52;17.10;99.90
11961;DHT22;6040;49.358;11.140;2023-08-06T14:28:19;17.00;99.90
11961;DHT22;6040;49.358;11.140;2023-08-06T14:30:46;17.00;99.90
11961;DHT22;6040;49.358;11.140;2023-08-06T14:33:13;16.90;99.90
11961;DHT22;6040;49.358;11.140;2023-08-06T14:35:39;16.80;99.90
11961;DHT22;6040;49.358;11.140;2023-08-06T14:38:06;16.70;99.90
11961;DHT22;6040;49.358;11.140;2023-08-06T14:40:33;16.70;99.90
11961;DHT22;6040;49.358;11.140;2023-08-06T14:43:06;16.60;99.90
11961;DHT22;6040;49.358;11.140;2023-08-06T14:45:32;16.70;99.90
11961;DHT22;6040;49.358;11.140;2023-08-06T14:47:59;16.70;99.90
11961;DHT22;6040;49.358;11.140;2023-08-06T14:50:26;16.50;99.90
11961;DHT22;6040;49.358;11.140;2023-08-06T14:52:53;16.50;99.90
11961;DHT22;6040;49.358;11.140;2023-08-06T14:55:24;16.50;99.90
11961;DHT22;6040;49.358;11.140;2023-08-06T14:57:51;16.50;99.90
11961;DHT22;6040;49.358;11.140;2023-08-06T15:00:19;16.50;99.90
11961;DHT22;6040;49.358;11.140;2023-08-06T15:02:46;16.40;99.90
11961;DHT22;6040;49.358;11.140;2023-08-06T15:05:13;16.50;99.90
11961;DHT22;6040;49.358;11.140;2023-08-06T15:07:40;16.50;99.90
11961;DHT22;6040;49.358;11.140;2023-08-06T15:10:07;16.60;99.90
11961;DHT22;6040;49.358;11.140;2023-08-06T15:12:34;16.60;99.90
11961;DHT22;6040;49.358;11.140;2023-08-06T15:15:01;16.50;99.90
11961;DHT22;6040;49.358;11.140;2023-08-06T15:17:29;16.50;99.90
11961;DHT22;6040;49.358;11.140;2023-08-06T15:19:56;17.40;99.90
11961;DHT22;6040;49.358;11.140;2023-08-06T15:22:24;16.60;99.90
11961;DHT22;6040;49.358;11.140;2023-08-06T15:24:50;16.60;99.90
11961;DHT22;6040;49.358;11.140;2023-08-06T15:27:17;16.50;99.90
11961;DHT22;6040;49.358;11.140;2023-08-06T15:29:44;16.40;99.90
11961;DHT22;6040;49.358;11.140;2023-08-06T15:32:11;16.40;99.90